Time;durP1;ratioP1;P1;durP2;ratioP2;P2;SDS_P1;SDS_P2;PMS_P1;PMS_P2;Temp;Humidity;BMP_temperature;BMP_pressure;BME280_temperature;BME280_humidity;BME280_pressure;Samples;Min_cycle;Max_cycle;Signal;HPM_P1;HPM_P2
2022/03/01 00:02:17;;;;;;;4.53;2.43;;;;;;;;;;5075319;28;20032;-70
2022/03/01 00:04:44;;;;;;;5.67;3.13;;;;;;;;;;5074937;28;20048;-70
2022/03/01 00:07:10;;;;;;;3.27;2.27;;;;;;;;;;5075171;28;20035;-69
2022/03/01 00:09:36;;;;;;;4.10;2.70;;;;;;;;;;5075783;28;20033;-69
2022/03/01 00:12:02;;;;;;;6.33;2.33;;;;;;;;;;5074966;28;20020;-69
2022/03/01 00:14:28;;;;;;;3.83;2.50;;;;;;;;;;5074797;28;20086;-70
2022/03/01 00:16:55;;;;;;;4.33;2.23;;;;;;;;;;5074856;28;20032;-69
2022/03/01 00:19:22;;;;;;;7.17;2.20;;;;;;;;;;5074267;28;20032;-69
2022/03/01 00:21:48;;;;;;;4.60;2.70;;;;;;;;;;5074657;28;20474;-69
2022/03/01 00:24:14;;;;;;;5.83;2.07;;;;;;;;;;5074657;28;20055;-69
2022/03/01 00:26:40;;;;;;;4.90;2.50;;;;;;;;;;5074786;28;20032;-69
2022/03/01 00:29:06;;;;;;;4.93;2.23;;;;;;;;;;5074472;28;20029;-73
2022/03/01 00:31:32;;;;;;;5.43;2.87;;;;;;;;;;5074625;28;20031;-75
2022/03/01 00:33:58;;;;;;;4.87;2.30;;;;;;;;;;5074431;28;20041;-74
2022/03/01 00:36:25;;;;;;;3.77;2.20;;;;;;;;;;5074538;28;20021;-74
2022/03/01 00:38:51;;;;;;;3.60;2.20;;;;;;;;;;5074640;28;20100;-69
2022/03/01 00:41:17;;;;;;;5.10;2.50;;;;;;;;;;5074393;28;20032;-69
2022/03/01 00:43:43;;;;;;;3.93;2.13;;;;;;;;;;5074518;28;20028;-70
2022/03/01 00:46:09;;;;;;;4.50;2.50;;;;;;;;;;5074152;28;20025;-70
2022/03/01 00:48:35;;;;;;;3.77;2.27;;;;;;;;;;5074395;28;20107;-70
2022/03/01 00:51:01;;;;;;;4.83;2.40;;;;;;;;;;5074005;28;20027;-69
2022/03/01 00:53:27;;;;;;;5.73;2.77;;;;;;;;;;5073848;28;20063;-70
2022/03/01 00:55:53;;;;;;;3.40;2.30;;;;;;;;;;5073976;28;20056;-70
2022/03/01 00:58:19;;;;;;;4.07;2.30;;;;;;;;;;5073626;28;20032;-70
2022/03/01 01:00:45;;;;;;;4.20;2.57;;;;;;;;;;5073785;28;20035;-71
2022/03/01 01:03:11;;;;;;;3.47;2.30;;;;;;;;;;5073792;28;20056;-69
2022/03/01 01:05:37;;;;;;;3.73;1.90;;;;;;;;;;5073945;28;20051;-70
2022/03/01 01:08:03;;;;;;;4.10;2.37;;;;;;;;;;5073973;28;20023;-69
2022/03/01 01:10:29;;;;;;;7.00;2.30;;;;;;;;;;5073610;28;20366;-69
2022/03/01 01:12:55;;;;;;;3.80;2.43;;;;;;;;;;5073845;28;20465;-69
2022/03/01 01:15:22;;;;;;;4.73;2.20;;;;;;;;;;5073468;28;20055;-70
2022/03/01 01:17:48;;;;;;;3.87;2.30;;;;;;;;;;5073635;28;20020;-71
2022/03/01 01:20:15;;;;;;;4.67;2.20;;;;;;;;;;5073463;28;20029;-70
2022/03/01 01:22:41;;;;;;;3.60;2.20;;;;;;;;;;5073418;28;20023;-70
2022/03/01 01:25:07;;;;;;;3.23;2.10;;;;;;;;;;5073577;28;20475;-69
2022/03/01 01:27:33;;;;;;;4.23;2.27;;;;;;;;;;5073178;28;20024;-69
2022/03/01 01:29:59;;;;;;;5.03;2.53;;;;;;;;;;5073387;28;20047;-69
2022/03/01 01:32:25;;;;;;;5.17;2.00;;;;;;;;;;5073101;28;20044;-69
2022/03/01 01:34:52;;;;;;;3.23;2.10;;;;;;;;;;5072926;28;20051;-69
2022/03/01 01:37:19;;;;;;;3.30;2.20;;;;;;;;;;5073170;28;20047;-70
2022/03/01 01:39:45;;;;;;;5.50;2.50;;;;;;;;;;5073339;28;20037;-69
2022/03/01 01:42:11;;;;;;;4.67;2.30;;;;;;;;;;5073502;28;20063;-69
2022/03/01 01:44:37;;;;;;;4.47;2.40;;;;;;;;;;5072825;28;20016;-69
2022/03/01 01:47:03;;;;;;;4.47;2.73;;;;;;;;;;5073039;28;20100;-69
2022/03/01 01:49:29;;;;;;;3.50;2.03;;;;;;;;;;5072822;28;20032;-69
2022/03/01 01:51:55;;;;;;;3.70;2.37;;;;;;;;;;5073037;28;20542;-70
2022/03/01 01:54:21;;;;;;;4.30;2.57;;;;;;;;;;5073219;28;20032;-69
2022/03/01 01:56:47;;;;;;;6.37;2.40;;;;;;;;;;5072983;28;20031;-70
2022/03/01 01:59:13;;;;;;;4.53;2.20;;;;;;;;;;5070454;28;20036;-70
2022/03/01 02:01:39;;;;;;;4.80;2.47;;;;;;;;;;5070382;28;20028;-69
2022/03/01 02:04:05;;;;;;;3.37;1.80;;;;;;;;;;5070487;28;20476;-70
2022/03/01 02:06:31;;;;;;;4.17;2.10;;;;;;;;;;5072803;28;20024;-70
2022/03/01 02:08:57;;;;;;;6.23;2.50;;;;;;;;;;5071986;28;20021;-69
2022/03/01 02:11:24;;;;;;;3.17;2.10;;;;;;;;;;5072529;28;20082;-69
2022/03/01 02:13:50;;;;;;;4.37;2.70;;;;;;;;;;5072392;28;20025;-69
2022/03/01 02:16:16;;;;;;;6.00;2.30;;;;;;;;;;5072536;28;20033;-69
2022/03/01 02:18:42;;;;;;;4.87;2.30;;;;;;;;;;5072313;28;20042;-69
2022/03/01 02:21:09;;;;;;;7.67;3.23;;;;;;;;;;5072663;28;20025;-69
2022/03/01 02:23:35;;;;;;;3.53;2.40;;;;;;;;;;5072664;28;20043;-69
2022/03/01 02:26:01;;;;;;;7.37;2.83;;;;;;;;;;5072768;28;20112;-69
2022/03/01 02:28:27;;;;;;;5.30;2.63;;;;;;;;;;5072353;28;20029;-69
2022/03/01 02:30:55;;;;;;;3.67;2.30;;;;;;;;;;5072712;28;20033;-69
2022/03/01 02:33:21;;;;;;;6.30;2.60;;;;;;;;;;5072919;28;20029;-69
2022/03/01 02:35:47;;;;;;;6.33;2.70;;;;;;;;;;5072023;28;20059;-69
2022/03/01 02:38:13;;;;;;;4.60;2.50;;;;;;;;;;5072041;28;20039;-69
2022/03/01 02:40:39;;;;;;;5.10;2.43;;;;;;;;;;5072535;28;20024;-69
2022/03/01 02:43:05;;;;;;;4.33;2.30;;;;;;;;;;5072342;28;20028;-69
2022/03/01 02:45:31;;;;;;;4.53;2.30;;;;;;;;;;5072686;28;20033;-70
2022/03/01 02:47:57;;;;;;;4.60;2.60;;;;;;;;;;5072621;28;20170;-70
2022/03/01 02:50:24;;;;;;;4.70;2.47;;;;;;;;;;5072241;28;20509;-70
2022/03/01 02:52:50;;;;;;;4.47;2.83;;;;;;;;;;5072340;28;20082;-69
2022/03/01 02:55:16;;;;;;;4.43;2.73;;;;;;;;;;5072647;28;20384;-68
2022/03/01 02:57:42;;;;;;;4.60;2.40;;;;;;;;;;5072220;28;20036;-69
2022/03/01 03:00:09;;;;;;;3.97;2.40;;;;;;;;;;5072392;28;20028;-69
2022/03/01 03:02:36;;;;;;;5.10;2.30;;;;;;;;;;5072394;28;20025;-69
2022/03/01 03:05:02;;;;;;;3.87;2.20;;;;;;;;;;5072470;28;20033;-70
2022/03/01 03:07:28;;;;;;;4.60;2.33;;;;;;;;;;5072226;28;20028;-69
2022/03/01 03:09:54;;;;;;;5.47;2.70;;;;;;;;;;5072458;28;20028;-69
2022/03/01 03:12:20;;;;;;;4.33;2.37;;;;;;;;;;5072098;28;20108;-69
2022/03/01 03:14:46;;;;;;;5.80;2.57;;;;;;;;;;5072110;28;20487;-69
2022/03/01 03:17:12;;;;;;;6.40;2.83;;;;;;;;;;5072165;28;20032;-69
2022/03/01 03:19:38;;;;;;;4.27;2.30;;;;;;;;;;5072594;28;20068;-69
2022/03/01 03:22:05;;;;;;;4.90;2.43;;;;;;;;;;5075674;28;20028;-69
2022/03/01 03:24:31;;;;;;;3.60;2.30;;;;;;;;;;5075906;28;20028;-69
2022/03/01 03:26:58;;;;;;;4.43;2.27;;;;;;;;;;5076017;28;20038;-69
2022/03/01 03:29:24;;;;;;;6.87;2.37;;;;;;;;;;5076007;28;20024;-70
2022/03/01 03:31:54;;;;;;;5.90;2.50;;;;;;;;;;5075474;28;20091;-69
2022/03/01 03:34:20;;;;;;;3.80;2.40;;;;;;;;;;5076071;28;20128;-69
2022/03/01 03:36:46;;;;;;;3.80;2.07;;;;;;;;;;5075768;28;20024;-69
2022/03/01 03:39:12;;;;;;;4.33;2.27;;;;;;;;;;5075691;28;20033;-69
2022/03/01 03:41:38;;;;;;;4.57;2.43;;;;;;;;;;5075581;28;20484;-69
2022/03/01 03:44:05;;;;;;;4.70;2.30;;;;;;;;;;5075442;28;20556;-69
2022/03/01 03:46:31;;;;;;;3.67;2.23;;;;;;;;;;5075513;28;20021;-69
2022/03/01 03:48:57;;;;;;;6.70;2.10;;;;;;;;;;5075555;28;20350;-69
2022/03/01 03:51:23;;;;;;;6.70;2.50;;;;;;;;;;5075721;28;20025;-69
2022/03/01 03:53:50;;;;;;;3.53;1.90;;;;;;;;;;5075295;28;20027;-69
2022/03/01 03:56:16;;;;;;;3.17;2.13;;;;;;;;;;5074001;28;20419;-69
2022/03/01 03:58:42;;;;;;;3.87;2.30;;;;;;;;;;5075320;28;20060;-69
2022/03/01 04:01:08;;;;;;;5.07;2.00;;;;;;;;;;5075238;28;20029;-69
2022/03/01 04:03:35;;;;;;;6.83;2.37;;;;;;;;;;5075154;28;20029;-69
2022/03/01 04:06:01;;;;;;;4.37;2.70;;;;;;;;;;5075177;28;20519;-69
2022/03/01 04:08:27;;;;;;;5.27;2.50;;;;;;;;;;5074991;28;20021;-69
2022/03/01 04:10:54;;;;;;;5.30;2.27;;;;;;;;;;5074986;28;20498;-70
2022/03/01 04:13:20;;;;;;;5.80;2.30;;;;;;;;;;5074992;28;20025;-69
2022/03/01 04:15:46;;;;;;;5.83;2.80;;;;;;;;;;5075003;28;20031;-69
2022/03/01 04:18:12;;;;;;;4.97;2.60;;;;;;;;;;5074904;28;20039;-69
2022/03/01 04:20:39;;;;;;;4.03;2.50;;;;;;;;;;5074995;28;20107;-69
2022/03/01 04:23:05;;;;;;;4.50;2.30;;;;;;;;;;5074841;28;20039;-69
2022/03/01 04:25:31;;;;;;;3.73;2.40;;;;;;;;;;5074555;28;20028;-69
2022/03/01 04:27:57;;;;;;;5.60;2.73;;;;;;;;;;5074693;28;20028;-69
2022/03/01 04:30:23;;;;;;;3.87;2.40;;;;;;;;;;5074720;28;20031;-69
2022/03/01 04:32:50;;;;;;;6.00;2.73;;;;;;;;;;5073560;28;20024;-69
2022/03/01 04:35:16;;;;;;;6.70;2.73;;;;;;;;;;5074356;28;20055;-69
2022/03/01 04:37:43;;;;;;;5.23;2.70;;;;;;;;;;5074627;28;20036;-69
2022/03/01 04:40:10;;;;;;;4.37;2.40;;;;;;;;;;5074457;28;20115;-70
2022/03/01 04:42:36;;;;;;;3.83;2.67;;;;;;;;;;5074364;28;20397;-70
2022/03/01 04:45:05;;;;;;;4.57;2.43;;;;;;;;;;5074249;28;20056;-69
2022/03/01 04:47:31;;;;;;;4.53;2.17;;;;;;;;;;5074440;28;20021;-69
2022/03/01 04:49:58;;;;;;;5.83;2.50;;;;;;;;;;5074196;28;20495;-69
2022/03/01 04:52:24;;;;;;;3.83;2.20;;;;;;;;;;5074076;28;20030;-69
2022/03/01 04:54:50;;;;;;;4.10;2.40;;;;;;;;;;5074414;28;20477;-69
2022/03/01 04:57:17;;;;;;;4.50;2.47;;;;;;;;;;5074225;28;20017;-69
2022/03/01 04:59:43;;;;;;;3.27;2.00;;;;;;;;;;5074392;28;20043;-69
2022/03/01 05:02:09;;;;;;;5.37;2.30;;;;;;;;;;5074304;28;20044;-69
2022/03/01 05:04:35;;;;;;;5.00;2.60;;;;;;;;;;5073721;28;20025;-69
2022/03/01 05:07:01;;;;;;;5.23;2.70;;;;;;;;;;5073827;28;20446;-73
2022/03/01 05:09:29;;;;;;;5.37;2.97;;;;;;;;;;5073876;28;20033;-74
2022/03/01 05:11:55;;;;;;;5.97;2.67;;;;;;;;;;5074077;28;20031;-75
2022/03/01 05:14:21;;;;;;;3.80;2.13;;;;;;;;;;5073614;28;20116;-72
2022/03/01 05:16:47;;;;;;;8.57;2.53;;;;;;;;;;5073650;28;20035;-69
2022/03/01 05:19:13;;;;;;;3.30;2.20;;;;;;;;;;5073636;28;20032;-74
2022/03/01 05:21:40;;;;;;;7.07;2.90;;;;;;;;;;5073544;28;20027;-69
2022/03/01 05:24:06;;;;;;;3.50;2.03;;;;;;;;;;5073721;28;20063;-69
2022/03/01 05:26:33;;;;;;;5.67;2.47;;;;;;;;;;5073399;28;20017;-74
2022/03/01 05:28:59;;;;;;;7.37;2.50;;;;;;;;;;5073762;28;20485;-73
2022/03/01 05:31:26;;;;;;;3.23;2.10;;;;;;;;;;5072991;28;20063;-70
2022/03/01 05:33:52;;;;;;;5.77;2.60;;;;;;;;;;5073237;28;20040;-69
2022/03/01 05:36:18;;;;;;;5.23;2.30;;;;;;;;;;5073347;28;20030;-70
2022/03/01 05:38:44;;;;;;;4.80;2.00;;;;;;;;;;5073293;28;20054;-73
2022/03/01 05:41:10;;;;;;;5.73;2.30;;;;;;;;;;5073287;28;20024;-70
2022/03/01 05:43:38;;;;;;;4.17;2.20;;;;;;;;;;5073097;28;20108;-68
2022/03/01 05:46:05;;;;;;;3.57;2.50;;;;;;;;;;5073181;28;20024;-69
2022/03/01 05:48:31;;;;;;;6.47;2.40;;;;;;;;;;5073200;28;20020;-74
2022/03/01 05:50:57;;;;;;;6.63;2.70;;;;;;;;;;5072814;28;20385;-70
2022/03/01 05:53:24;;;;;;;3.63;2.13;;;;;;;;;;5073076;28;20025;-69
2022/03/01 05:55:50;;;;;;;5.63;2.43;;;;;;;;;;5073364;28;20489;-69
2022/03/01 05:58:16;;;;;;;4.63;2.57;;;;;;;;;;5073042;28;20414;-69
2022/03/01 06:00:42;;;;;;;6.03;2.53;;;;;;;;;;5073393;28;20078;-69
2022/03/01 06:03:08;;;;;;;4.87;2.20;;;;;;;;;;5073267;28;20032;-74
2022/03/01 06:05:35;;;;;;;5.33;2.20;;;;;;;;;;5072401;28;20435;-70
2022/03/01 06:08:03;;;;;;;3.90;2.30;;;;;;;;;;5072650;28;20372;-70
2022/03/01 06:10:29;;;;;;;6.33;2.40;;;;;;;;;;5073160;28;20032;-69
2022/03/01 06:12:55;;;;;;;5.03;2.47;;;;;;;;;;5073072;28;20460;-70
2022/03/01 06:15:21;;;;;;;3.97;2.10;;;;;;;;;;5072793;28;20028;-70
2022/03/01 06:17:47;;;;;;;4.33;2.40;;;;;;;;;;5072758;28;20047;-69
2022/03/01 06:20:13;;;;;;;5.13;2.20;;;;;;;;;;5072950;28;20405;-74
2022/03/01 06:22:40;;;;;;;5.40;2.47;;;;;;;;;;5072918;28;20377;-69
2022/03/01 06:25:07;;;;;;;4.10;2.30;;;;;;;;;;5072777;28;20115;-69
2022/03/01 06:27:34;;;;;;;7.30;2.27;;;;;;;;;;5072736;28;20032;-69
2022/03/01 06:30:00;;;;;;;5.83;2.73;;;;;;;;;;5070834;28;20024;-69
2022/03/01 06:32:26;;;;;;;3.57;2.67;;;;;;;;;;5072635;28;20470;-69
2022/03/01 06:34:53;;;;;;;4.70;2.20;;;;;;;;;;5072408;28;20055;-70
2022/03/01 06:37:19;;;;;;;6.47;2.80;;;;;;;;;;5073070;28;20017;-75
2022/03/01 06:39:46;;;;;;;10.17;3.77;;;;;;;;;;5072355;28;20036;-71
2022/03/01 06:42:12;;;;;;;10.87;3.30;;;;;;;;;;5072843;28;20032;-70
2022/03/01 06:44:38;;;;;;;6.37;2.93;;;;;;;;;;5072553;28;20029;-70
2022/03/01 06:47:05;;;;;;;6.17;2.97;;;;;;;;;;5072108;28;20021;-70
2022/03/01 06:49:31;;;;;;;4.97;2.90;;;;;;;;;;5072607;28;20500;-71
2022/03/01 06:51:57;;;;;;;4.00;2.53;;;;;;;;;;5072684;28;20028;-71
2022/03/01 06:54:23;;;;;;;8.83;3.40;;;;;;;;;;5072901;28;20035;-76
2022/03/01 06:56:49;;;;;;;5.73;2.80;;;;;;;;;;5076444;28;20031;-70
2022/03/01 06:59:15;;;;;;;6.93;2.97;;;;;;;;;;5075663;28;20071;-71
2022/03/01 07:01:42;;;;;;;5.33;2.70;;;;;;;;;;5076730;28;20388;-70
2022/03/01 07:04:08;;;;;;;5.33;2.90;;;;;;;;;;5075753;28;20527;-70
2022/03/01 07:06:34;;;;;;;9.93;3.27;;;;;;;;;;5075554;28;20044;-70
2022/03/01 07:09:00;;;;;;;6.80;3.00;;;;;;;;;;5075782;28;20029;-70
2022/03/01 07:11:26;;;;;;;5.97;3.33;;;;;;;;;;5075240;28;20112;-71
2022/03/01 07:13:52;;;;;;;14.83;3.50;;;;;;;;;;5075617;28;20035;-70
2022/03/01 07:16:19;;;;;;;7.00;3.73;;;;;;;;;;5075406;28;20029;-70
2022/03/01 07:18:45;;;;;;;8.57;3.67;;;;;;;;;;5075606;28;20123;-74
2022/03/01 07:21:11;;;;;;;9.33;3.43;;;;;;;;;;5075233;28;20041;-71
2022/03/01 07:23:37;;;;;;;11.83;3.00;;;;;;;;;;5075959;28;20024;-70
2022/03/01 07:26:04;;;;;;;9.37;3.30;;;;;;;;;;5075339;28;20029;-70
2022/03/01 07:28:30;;;;;;;7.20;3.53;;;;;;;;;;5075520;28;20029;-69
2022/03/01 07:30:57;;;;;;;6.97;3.57;;;;;;;;;;5074844;28;20032;-70
2022/03/01 07:33:23;;;;;;;7.67;3.40;;;;;;;;;;5074901;28;20028;-77
2022/03/01 07:35:49;;;;;;;8.13;3.60;;;;;;;;;;5074479;28;20115;-70
2022/03/01 07:38:15;;;;;;;7.93;3.40;;;;;;;;;;5072551;28;20047;-69
2022/03/01 07:40:41;;;;;;;6.40;3.10;;;;;;;;;;5072204;28;20159;-68
2022/03/01 07:43:07;;;;;;;5.37;3.13;;;;;;;;;;5073631;28;20027;-68
2022/03/01 07:45:34;;;;;;;7.57;3.20;;;;;;;;;;5074348;28;20103;-66
2022/03/01 07:48:01;;;;;;;6.83;3.97;;;;;;;;;;5073477;28;20020;-67
2022/03/01 07:50:27;;;;;;;10.10;4.63;;;;;;;;;;5072151;28;20021;-68
2022/03/01 07:52:54;;;;;;;5.73;3.20;;;;;;;;;;5072983;28;20028;-67
2022/03/01 07:55:20;;;;;;;5.57;2.73;;;;;;;;;;5075218;28;20036;-66
2022/03/01 07:57:46;;;;;;;8.23;3.10;;;;;;;;;;5075147;28;20025;-67
2022/03/01 08:00:13;;;;;;;6.00;3.00;;;;;;;;;;5074027;28;20013;-67
2022/03/01 08:02:39;;;;;;;9.37;3.23;;;;;;;;;;5074964;28;20455;-67
2022/03/01 08:05:06;;;;;;;5.90;2.80;;;;;;;;;;5074980;28;20370;-67
2022/03/01 08:07:33;;;;;;;6.77;3.50;;;;;;;;;;5074910;28;20029;-67
2022/03/01 08:09:59;;;;;;;5.53;3.00;;;;;;;;;;5074673;28;20029;-67
2022/03/01 08:12:25;;;;;;;7.43;2.90;;;;;;;;;;5074963;28;20032;-67
2022/03/01 08:14:51;;;;;;;5.47;2.80;;;;;;;;;;5074855;28;20032;-67
2022/03/01 08:17:17;;;;;;;6.27;2.60;;;;;;;;;;5074670;28;20120;-67
2022/03/01 08:19:43;;;;;;;6.63;3.70;;;;;;;;;;5074627;28;20036;-69
2022/03/01 08:22:10;;;;;;;4.60;2.93;;;;;;;;;;5074727;28;20024;-68
2022/03/01 08:24:36;;;;;;;4.83;2.70;;;;;;;;;;5074530;28;20025;-67
2022/03/01 08:27:02;;;;;;;6.60;3.20;;;;;;;;;;5074310;28;20024;-70
2022/03/01 08:29:29;;;;;;;5.50;3.33;;;;;;;;;;5074370;28;20052;-69
2022/03/01 08:31:55;;;;;;;5.70;3.03;;;;;;;;;;5074513;28;20020;-69
2022/03/01 08:34:21;;;;;;;4.27;2.40;;;;;;;;;;5054301;28;20063;-69
2022/03/01 08:36:47;;;;;;;3.77;2.33;;;;;;;;;;5053100;28;20033;-69
2022/03/01 08:39:13;;;;;;;4.30;2.60;;;;;;;;;;5052512;28;20037;-68
2022/03/01 08:41:40;;;;;;;3.90;2.40;;;;;;;;;;5052700;28;20028;-67
2022/03/01 08:44:06;;;;;;;3.70;2.37;;;;;;;;;;5053380;28;20057;-69
2022/03/01 08:46:32;;;;;;;5.00;2.53;;;;;;;;;;5054404;28;20067;-69
2022/03/01 08:48:58;;;;;;;6.77;2.70;;;;;;;;;;5054290;28;20066;-66
2022/03/01 08:51:25;;;;;;;5.33;2.57;;;;;;;;;;5054183;28;20112;-67
2022/03/01 08:53:51;;;;;;;4.97;2.60;;;;;;;;;;5054474;28;20052;-68
2022/03/01 08:56:17;;;;;;;7.97;1.97;;;;;;;;;;5054131;28;20477;-69
2022/03/01 08:58:44;;;;;;;4.13;2.20;;;;;;;;;;5054430;28;20079;-73
2022/03/01 09:01:11;;;;;;;6.07;2.43;;;;;;;;;;5054055;28;20481;-66
2022/03/01 09:03:37;;;;;;;5.13;2.40;;;;;;;;;;5053979;28;20060;-69
2022/03/01 09:06:05;;;;;;;7.37;2.33;;;;;;;;;;5053890;28;20035;-70
2022/03/01 09:08:31;;;;;;;4.00;2.17;;;;;;;;;;5054112;28;20029;-66
2022/03/01 09:10:57;;;;;;;4.57;2.37;;;;;;;;;;5054015;28;20029;-69
2022/03/01 09:13:23;;;;;;;4.33;2.17;;;;;;;;;;5053821;28;20025;-70
2022/03/01 09:15:49;;;;;;;5.70;2.10;;;;;;;;;;5054154;28;20119;-67
2022/03/01 09:18:15;;;;;;;3.80;2.00;;;;;;;;;;5053033;28;20060;-65
2022/03/01 09:20:41;;;;;;;5.43;2.30;;;;;;;;;;5053768;28;20025;-70
2022/03/01 09:23:07;;;;;;;4.87;2.40;;;;;;;;;;5053643;28;20060;-68
2022/03/01 09:25:33;;;;;;;3.37;2.10;;;;;;;;;;5053569;28;20480;-68
2022/03/01 09:27:59;;;;;;;5.63;2.47;;;;;;;;;;5053883;28;20490;-67
2022/03/01 09:30:25;;;;;;;7.40;2.40;;;;;;;;;;5053436;28;20025;-66
2022/03/01 09:32:52;;;;;;;5.40;2.30;;;;;;;;;;5053299;28;20055;-67
2022/03/01 09:35:18;;;;;;;4.13;2.30;;;;;;;;;;5053131;28;20049;-66
2022/03/01 09:37:44;;;;;;;3.00;1.83;;;;;;;;;;5053430;28;20064;-66
2022/03/01 09:40:11;;;;;;;9.53;2.53;;;;;;;;;;5053335;28;20151;-68
2022/03/01 09:42:38;;;;;;;13.10;6.77;;;;;;;;;;5053495;28;20082;-68
2022/03/01 09:45:04;;;;;;;8.03;3.77;;;;;;;;;;5053311;28;20060;-66
2022/03/01 09:47:31;;;;;;;5.70;3.47;;;;;;;;;;5053297;28;20017;-65
2022/03/01 09:49:57;;;;;;;4.03;2.30;;;;;;;;;;5053367;28;20024;-65
2022/03/01 09:52:23;;;;;;;13.57;2.67;;;;;;;;;;5053362;28;20025;-65
2022/03/01 09:54:50;;;;;;;4.13;2.40;;;;;;;;;;5052862;28;20021;-65
2022/03/01 09:57:16;;;;;;;4.60;2.27;;;;;;;;;;5053348;28;20461;-66
2022/03/01 09:59:42;;;;;;;3.57;2.20;;;;;;;;;;5053308;28;20392;-65
2022/03/01 10:02:09;;;;;;;4.53;2.23;;;;;;;;;;5053135;28;20507;-66
2022/03/01 10:04:54;;;;;;;4.70;2.47;;;;;;;;;;5052740;28;20065;-69
2022/03/01 10:07:24;;;;;;;4.53;2.40;;;;;;;;;;5052686;28;20061;-69
2022/03/01 10:09:50;;;;;;;7.30;2.60;;;;;;;;;;5052673;28;20017;-69
2022/03/01 10:12:25;;;;;;;6.43;2.80;;;;;;;;;;5052749;28;20028;-65
2022/03/01 10:14:59;;;;;;;5.60;2.50;;;;;;;;;;5052815;28;20120;-69
2022/03/01 10:17:35;;;;;;;4.33;2.23;;;;;;;;;;5052906;28;20104;-66
2022/03/01 10:20:06;;;;;;;7.63;2.70;;;;;;;;;;5052907;28;20036;-65
2022/03/01 10:22:32;;;;;;;4.67;2.30;;;;;;;;;;5052480;28;20036;-65
2022/03/01 10:25:06;;;;;;;5.67;2.40;;;;;;;;;;5052775;28;20476;-66
2022/03/01 10:27:33;;;;;;;4.93;2.10;;;;;;;;;;5052074;28;20135;-65
2022/03/01 10:29:59;;;;;;;3.53;2.20;;;;;;;;;;5053865;28;20036;-65
2022/03/01 10:32:25;;;;;;;5.07;2.57;;;;;;;;;;5057196;28;20025;-66
2022/03/01 10:35:01;;;;;;;3.87;2.33;;;;;;;;;;5057047;28;20056;-65
2022/03/01 10:37:29;;;;;;;5.10;2.10;;;;;;;;;;5057217;28;20385;-66
2022/03/01 10:40:14;;;;;;;4.93;2.70;;;;;;;;;;5056673;28;20033;-65
2022/03/01 10:42:40;;;;;;;3.57;2.40;;;;;;;;;;5056535;28;20025;-66
2022/03/01 10:45:08;;;;;;;3.93;2.43;;;;;;;;;;5056777;28;20033;-65
2022/03/01 10:47:35;;;;;;;3.43;2.20;;;;;;;;;;5056887;28;20036;-66
2022/03/01 10:50:02;;;;;;;4.40;2.67;;;;;;;;;;5056575;28;20026;-65
2022/03/01 10:52:35;;;;;;;4.30;2.93;;;;;;;;;;5056825;28;20036;-65
2022/03/01 10:55:01;;;;;;;6.00;2.30;;;;;;;;;;5056481;28;20024;-66
2022/03/01 10:57:27;;;;;;;3.83;2.40;;;;;;;;;;5056634;28;20100;-69
2022/03/01 11:34:15;;;;;;;4.23;2.40;;;;;;;;;;5038541;28;20475;-66
2022/03/01 11:36:52;;;;;;;4.00;2.50;;;;;;;;;;5055463;28;20040;-66
2022/03/01 11:39:25;;;;;;;7.73;2.40;;;;;;;;;;5055233;28;20045;-65
2022/03/01 11:41:52;;;;;;;5.75;2.42;;;;;;;;;;5055104;28;20041;-66
2022/03/01 11:44:24;;;;;;;4.73;2.43;;;;;;;;;;5055375;28;20029;-66
2022/03/01 11:46:50;;;;;;;4.70;2.40;;;;;;;;;;5055326;28;20456;-65
2022/03/01 11:49:18;;;;;;;3.97;2.47;;;;;;;;;;5055497;28;20043;-65
2022/03/01 11:52:10;;;;;;;4.53;2.40;;;;;;;;;;5055333;28;20037;-65
2022/03/01 11:54:40;;;;;;;3.90;2.45;;;;;;;;;;5050802;28;20044;-65
2022/03/01 11:57:07;;;;;;;4.23;2.20;;;;;;;;;;5055202;28;20025;-65
2022/03/01 11:59:37;;;;;;;5.70;2.80;;;;;;;;;;5055083;28;20041;-68
2022/03/01 12:02:05;;;;;;;3.63;2.60;;;;;;;;;;5054945;28;20025;-69
2022/03/01 12:04:31;;;;;;;4.07;2.50;;;;;;;;;;5055143;28;20037;-68
2022/03/01 12:06:57;;;;;;;4.80;2.70;;;;;;;;;;5055114;28;20037;-69
2022/03/01 12:09:25;;;;;;;4.90;2.60;;;;;;;;;;5055129;28;20409;-65
2022/03/01 12:12:01;;;;;;;5.33;2.33;;;;;;;;;;5054781;28;20501;-65
2022/03/01 12:14:29;;;;;;;5.85;2.70;;;;;;;;;;5054594;28;20029;-70
2022/03/01 12:16:55;;;;;;;4.93;2.17;;;;;;;;;;5054898;28;20069;-64
2022/03/01 12:19:22;;;;;;;3.65;2.30;;;;;;;;;;5054233;28;20112;-65
2022/03/01 12:21:54;;;;;;;2.90;1.83;;;;;;;;;;5054742;28;20037;-70
2022/03/01 12:24:24;;;;;;;4.28;2.30;;;;;;;;;;5054483;28;20035;-66
2022/03/01 12:26:51;;;;;;;4.15;2.58;;;;;;;;;;5054407;28;20082;-65
2022/03/01 12:29:18;;;;;;;4.72;2.90;;;;;;;;;;5054659;28;20037;-65
2022/03/01 12:31:54;;;;;;;6.03;2.42;;;;;;;;;;5054231;28;20087;-70
2022/03/01 12:34:23;;;;;;;2.38;2.05;;;;;;;;;;5053861;28;20069;-65
2022/03/01 12:36:49;;;;;;;4.82;2.70;;;;;;;;;;5053056;28;20401;-65
2022/03/01 12:39:16;;;;;;;4.78;2.65;;;;;;;;;;5054083;28;20489;-68
2022/03/01 12:41:43;;;;;;;4.43;2.72;;;;;;;;;;5054805;28;20029;-68
2022/03/01 12:44:10;;;;;;;7.03;2.60;;;;;;;;;;5053839;28;20390;-68
2022/03/01 12:46:37;;;;;;;3.80;2.50;;;;;;;;;;5054820;28;20029;-71
2022/03/01 12:49:08;;;;;;;3.85;2.65;;;;;;;;;;5054559;28;20472;-69
2022/03/01 12:51:34;;;;;;;6.53;2.50;;;;;;;;;;5054233;28;20044;-65
2022/03/01 12:54:02;;;;;;;4.18;2.67;;;;;;;;;;5053399;28;20033;-68
2022/03/01 12:56:29;;;;;;;5.18;2.83;;;;;;;;;;5059583;28;20040;-69
2022/03/01 12:59:01;;;;;;;3.88;2.40;;;;;;;;;;5073581;28;20043;-68
2022/03/01 13:01:27;;;;;;;4.30;2.63;;;;;;;;;;5073739;28;20032;-69
2022/03/01 13:03:53;;;;;;;5.50;2.88;;;;;;;;;;5073740;28;20033;-69
2022/03/01 13:06:20;;;;;;;5.43;2.95;;;;;;;;;;5073981;28;20029;-69
2022/03/01 13:08:50;;;;;;;7.93;2.80;;;;;;;;;;5073823;28;20380;-69
2022/03/01 13:11:16;;;;;;;4.10;2.63;;;;;;;;;;5073432;28;20071;-69
2022/03/01 13:13:46;;;;;;;4.13;2.60;;;;;;;;;;5072179;28;20366;-65
2022/03/01 13:16:16;;;;;;;4.65;2.95;;;;;;;;;;5071469;28;20064;-65
2022/03/01 13:18:42;;;;;;;3.45;2.30;;;;;;;;;;5071672;28;20036;-66
2022/03/01 13:21:09;;;;;;;3.70;2.55;;;;;;;;;;5072411;28;20170;-65
2022/03/01 13:23:35;;;;;;;4.93;2.67;;;;;;;;;;5072497;28;20037;-64
2022/03/01 13:26:01;;;;;;;4.25;2.60;;;;;;;;;;5072520;28;20025;-63
2022/03/01 13:28:38;;;;;;;3.70;2.60;;;;;;;;;;5072850;28;20028;-67
2022/03/01 13:31:05;;;;;;;5.72;2.75;;;;;;;;;;5073414;28;20028;-64
2022/03/01 13:33:31;;;;;;;4.07;2.97;;;;;;;;;;5073048;28;20417;-63
2022/03/01 13:35:58;;;;;;;5.78;2.50;;;;;;;;;;5073642;28;20428;-64
2022/03/01 13:38:25;;;;;;;3.95;2.50;;;;;;;;;;5073294;28;20502;-64
2022/03/01 13:40:51;;;;;;;4.40;2.90;;;;;;;;;;5072107;28;20429;-64
2022/03/01 13:43:24;;;;;;;5.38;3.00;;;;;;;;;;5033167;28;20037;-64
2022/03/01 13:45:56;;;;;;;3.72;2.42;;;;;;;;;;5033234;28;20418;-63
2022/03/01 13:48:22;;;;;;;3.58;2.65;;;;;;;;;;5032729;28;20037;-64
2022/03/01 13:50:48;;;;;;;4.13;2.60;;;;;;;;;;5032465;28;20473;-64
2022/03/01 13:53:17;;;;;;;4.45;2.83;;;;;;;;;;5015161;28;20426;-64
2022/03/01 13:55:44;;;;;;;4.15;2.85;;;;;;;;;;5033482;28;20037;-64
2022/03/01 13:58:15;;;;;;;5.07;2.65;;;;;;;;;;5032868;28;20037;-64
2022/03/01 14:00:42;;;;;;;4.40;2.88;;;;;;;;;;5033299;28;20041;-66
2022/03/01 14:03:12;;;;;;;4.50;2.80;;;;;;;;;;5032641;28;20112;-64
2022/03/01 14:05:44;;;;;;;4.88;3.15;;;;;;;;;;5031732;28;20486;-64
2022/03/01 14:08:10;;;;;;;;;;;;;;;;;;5031168;28;20399;-66
2022/03/01 14:10:39;;;;;;;9.23;2.70;;;;;;;;;;5004603;28;19912;-63
2022/03/01 14:13:31;;;;;;;6.85;2.95;;;;;;;;;;5031604;28;20041;-64
2022/03/01 14:16:15;;;;;;;6.18;2.80;;;;;;;;;;5031265;28;20410;-64
2022/03/01 14:18:41;;;;;;;5.05;2.67;;;;;;;;;;5032533;28;20084;-64
2022/03/01 14:21:12;;;;;;;4.80;2.80;;;;;;;;;;5032795;28;20037;-63
2022/03/01 14:23:39;;;;;;;8.07;3.00;;;;;;;;;;5035350;28;20037;-65
2022/03/01 14:26:05;;;;;;;4.75;3.00;;;;;;;;;;5068067;28;20044;-62
2022/03/01 14:28:32;;;;;;;4.88;2.90;;;;;;;;;;5052804;28;20068;-63
2022/03/01 14:30:59;;;;;;;4.45;2.70;;;;;;;;;;5052723;28;20029;-64
2022/03/01 14:33:28;;;;;;;4.30;2.75;;;;;;;;;;5052330;28;20108;-63
2022/03/01 14:35:54;;;;;;;3.90;2.97;;;;;;;;;;5052481;28;20029;-64
2022/03/01 14:38:21;;;;;;;7.00;3.15;;;;;;;;;;5052722;28;20142;-68
2022/03/01 14:40:47;;;;;;;5.63;2.90;;;;;;;;;;5052492;28;20037;-69
2022/03/01 14:43:13;;;;;;;7.00;3.08;;;;;;;;;;5051526;28;20397;-65
2022/03/01 14:45:39;;;;;;;4.07;2.72;;;;;;;;;;5049778;28;20068;-63
2022/03/01 14:48:06;;;;;;;4.82;2.90;;;;;;;;;;5049944;28;20033;-64
2022/03/01 14:50:33;;;;;;;6.20;3.35;;;;;;;;;;5049781;28;20454;-64
2022/03/01 14:52:59;;;;;;;4.82;3.00;;;;;;;;;;5049766;28;20048;-63
2022/03/01 14:55:25;;;;;;;4.03;2.70;;;;;;;;;;5054751;28;20017;-64
2022/03/01 14:57:51;;;;;;;5.30;3.17;;;;;;;;;;5068423;28;20040;-64
2022/03/01 15:00:17;;;;;;;3.97;2.47;;;;;;;;;;5069990;28;20037;-68
2022/03/01 15:02:43;;;;;;;3.00;2.50;;;;;;;;;;5065409;28;20029;-63
2022/03/01 15:05:10;;;;;;;4.80;2.72;;;;;;;;;;5051256;28;20482;-63
2022/03/01 15:07:37;;;;;;;5.00;2.80;;;;;;;;;;5052005;28;20033;-65
2022/03/01 15:10:04;;;;;;;4.57;2.90;;;;;;;;;;5052279;28;20037;-64
2022/03/01 15:12:30;;;;;;;4.40;3.15;;;;;;;;;;5051978;28;20044;-64
2022/03/01 15:14:56;;;;;;;4.38;2.72;;;;;;;;;;5051804;28;20029;-63
2022/03/01 15:17:23;;;;;;;5.47;3.22;;;;;;;;;;5055695;28;20562;-65